Time;durP1;ratioP1;P1;durP2;ratioP2;P2;SDS_P1;SDS_P2;PMS_P1;PMS_P2;Temp;Humidity;BMP_temperature;BMP_pressure;BME280_temperature;BME280_humidity;BME280_pressure;Samples;Min_cycle;Max_cycle;Signal;HPM_P1;HPM_P2
2024/04/04 00:02:14;;;;;;;1.17;1.00;;;;;;;;;;5092854;28;20491;-74
2024/04/04 00:04:40;;;;;;;1.25;0.95;;;;;;;;;;5085974;28;20040;-74
2024/04/04 00:07:05;;;;;;;2.33;1.02;;;;;;;;;;5087349;28;20056;-75
2024/04/04 00:09:31;;;;;;;1.35;0.82;;;;;;;;;;5068822;28;20040;-76
2024/04/04 00:11:56;;;;;;;0.35;0.30;;;;;;;;;;5089573;28;20110;-75
2024/04/04 00:14:21;;;;;;;0.50;0.50;;;;;;;;;;5075182;28;20065;-76
2024/04/04 00:16:47;;;;;;;0.40;0.35;;;;;;;;;;5086816;28;20035;-75
2024/04/04 00:19:12;;;;;;;0.25;0.22;;;;;;;;;;5089412;28;20142;-75
2024/04/04 00:21:37;;;;;;;0.95;0.82;;;;;;;;;;5091448;28;20032;-75
2024/04/04 00:24:03;;;;;;;1.05;1.02;;;;;;;;;;5089860;28;20059;-75
2024/04/04 00:26:28;;;;;;;0.30;0.30;;;;;;;;;;5087331;28;20820;-75
2024/04/04 00:28:54;;;;;;;1.17;0.55;;;;;;;;;;5088203;28;20090;-75
2024/04/04 00:31:20;;;;;;;0.75;0.45;;;;;;;;;;5091371;28;20040;-76
2024/04/04 00:33:45;;;;;;;0.20;0.20;;;;;;;;;;5078266;28;20137;-75
2024/04/04 00:36:11;;;;;;;0.88;0.77;;;;;;;;;;5090261;28;20048;-75
2024/04/04 00:38:36;;;;;;;2.20;1.00;;;;;;;;;;5095888;28;20475;-75
2024/04/04 00:41:01;;;;;;;0.30;0.30;;;;;;;;;;5088941;28;20554;-75
2024/04/04 00:43:27;;;;;;;1.23;0.65;;;;;;;;;;5085303;28;20028;-75
2024/04/04 00:45:52;;;;;;;0.20;0.20;;;;;;;;;;5090259;28;20044;-75
2024/04/04 00:48:18;;;;;;;0.85;0.80;;;;;;;;;;5090529;28;20142;-75
2024/04/04 00:50:44;;;;;;;0.75;0.75;;;;;;;;;;5088836;28;20494;-74
2024/04/04 00:53:09;;;;;;;3.05;1.20;;;;;;;;;;5086834;28;20032;-75
2024/04/04 00:55:35;;;;;;;0.43;0.43;;;;;;;;;;5090866;28;20039;-75
2024/04/04 00:58:00;;;;;;;2.08;1.38;;;;;;;;;;5093821;28;20483;-75
2024/04/04 01:00:26;;;;;;;0.20;0.20;;;;;;;;;;5078566;28;20059;-75
2024/04/04 01:02:51;;;;;;;2.83;2.03;;;;;;;;;;5085614;28;20024;-75
2024/04/04 01:05:17;;;;;;;0.75;0.70;;;;;;;;;;5084704;28;20540;-75
2024/04/04 01:07:43;;;;;;;0.20;0.20;;;;;;;;;;5066484;28;20100;-74
2024/04/04 01:10:09;;;;;;;0.77;0.63;;;;;;;;;;5087858;28;20594;-74
2024/04/04 01:12:34;;;;;;;1.10;0.95;;;;;;;;;;5085789;28;20048;-76
2024/04/04 01:15:00;;;;;;;0.30;0.30;;;;;;;;;;5084728;28;20027;-74
2024/04/04 01:17:26;;;;;;;0.30;0.30;;;;;;;;;;5088241;28;20531;-76
2024/04/04 01:19:51;;;;;;;0.75;0.70;;;;;;;;;;5086236;28;20059;-76
2024/04/04 01:22:17;;;;;;;0.55;0.47;;;;;;;;;;5090060;28;20088;-77
2024/04/04 01:24:42;;;;;;;3.72;0.68;;;;;;;;;;5085900;28;20036;-76
2024/04/04 01:27:08;;;;;;;0.55;0.55;;;;;;;;;;5086121;28;20052;-75
2024/04/04 01:29:33;;;;;;;0.10;0.10;;;;;;;;;;5090424;28;20024;-75
2024/04/04 01:31:59;;;;;;;0.20;0.20;;;;;;;;;;5089080;28;20044;-76
2024/04/04 01:34:24;;;;;;;2.00;1.80;;;;;;;;;;5084828;28;20040;-76
2024/04/04 01:36:49;;;;;;;1.05;0.95;;;;;;;;;;5087018;28;20032;-75
2024/04/04 01:39:15;;;;;;;1.85;1.65;;;;;;;;;;5085389;28;20100;-76
2024/04/04 01:41:43;;;;;;;0.77;0.65;;;;;;;;;;5084532;28;20017;-77
2024/04/04 01:44:09;;;;;;;1.23;0.65;;;;;;;;;;5086136;28;20124;-76
2024/04/04 01:46:34;;;;;;;0.50;0.50;;;;;;;;;;5086284;28;20134;-76
2024/04/04 01:48:59;;;;;;;0.50;0.30;;;;;;;;;;5082042;28;20040;-76
2024/04/04 01:51:25;;;;;;;0.25;0.25;;;;;;;;;;5066736;28;20051;-78
2024/04/04 01:53:50;;;;;;;0.55;0.38;;;;;;;;;;5085799;28;20023;-77
2024/04/04 01:56:16;;;;;;;1.70;1.25;;;;;;;;;;5087680;28;20372;-75
2024/04/04 01:58:41;;;;;;;0.60;0.60;;;;;;;;;;5085931;28;20036;-74
2024/04/04 02:01:06;;;;;;;0.60;0.60;;;;;;;;;;5086164;28;20471;-76
2024/04/04 02:03:32;;;;;;;0.30;0.30;;;;;;;;;;5084156;28;20055;-76
2024/04/04 02:05:57;;;;;;;0.38;0.38;;;;;;;;;;5086695;28;20020;-77
2024/04/04 02:08:23;;;;;;;0.20;0.20;;;;;;;;;;5088433;28;20062;-75
2024/04/04 02:10:48;;;;;;;1.67;0.40;;;;;;;;;;5085143;28;20048;-75
2024/04/04 02:13:14;;;;;;;0.75;0.75;;;;;;;;;;5085720;28;20047;-75
2024/04/04 02:15:39;;;;;;;0.40;0.40;;;;;;;;;;5087147;28;20036;-76
2024/04/04 02:18:05;;;;;;;0.20;0.20;;;;;;;;;;5087612;28;20044;-76
2024/04/04 02:20:30;;;;;;;1.02;0.95;;;;;;;;;;5089479;28;20134;-76
2024/04/04 02:22:56;;;;;;;1.02;0.68;;;;;;;;;;5095467;28;20110;-76
2024/04/04 02:25:22;;;;;;;1.63;1.45;;;;;;;;;;5089109;28;20495;-77
2024/04/04 02:27:47;;;;;;;0.30;0.30;;;;;;;;;;5088312;28;20571;-75
2024/04/04 02:30:12;;;;;;;0.45;0.45;;;;;;;;;;5072248;28;20051;-76
2024/04/04 02:32:38;;;;;;;0.52;0.38;;;;;;;;;;5090176;28;20490;-75
2024/04/04 02:35:04;;;;;;;0.70;0.65;;;;;;;;;;5091465;28;20876;-76
2024/04/04 02:37:30;;;;;;;0.85;0.85;;;;;;;;;;5085498;28;20040;-76
2024/04/04 02:39:55;;;;;;;0.73;0.70;;;;;;;;;;5058531;28;20233;-77
2024/04/04 02:42:21;;;;;;;1.88;1.70;;;;;;;;;;5086808;28;20097;-75
2024/04/04 02:44:47;;;;;;;1.02;0.70;;;;;;;;;;5086562;28;20028;-74
2024/04/04 02:47:12;;;;;;;1.05;0.85;;;;;;;;;;5090145;28;20028;-75
2024/04/04 02:49:38;;;;;;;2.05;0.90;;;;;;;;;;5087409;28;20048;-75
2024/04/04 02:52:03;;;;;;;1.15;1.05;;;;;;;;;;5082070;28;20040;-76
2024/04/04 02:54:29;;;;;;;3.50;1.52;;;;;;;;;;5085241;28;20039;-75
2024/04/04 02:56:54;;;;;;;0.75;0.70;;;;;;;;;;5088699;28;20032;-76
2024/04/04 02:59:20;;;;;;;1.65;0.98;;;;;;;;;;5094636;28;20503;-75
2024/04/04 03:01:45;;;;;;;1.65;1.55;;;;;;;;;;5087963;28;20487;-76
2024/04/04 03:04:10;;;;;;;1.98;0.77;;;;;;;;;;5084444;28;20091;-75
2024/04/04 03:06:36;;;;;;;1.15;0.70;;;;;;;;;;5085808;28;20043;-76
2024/04/04 03:09:03;;;;;;;2.45;1.77;;;;;;;;;;5083234;28;20048;-75
2024/04/04 03:11:29;;;;;;;1.60;1.08;;;;;;;;;;5089264;28;20019;-76
2024/04/04 03:13:54;;;;;;;0.95;0.95;;;;;;;;;;5091742;28;20039;-78
2024/04/04 03:16:19;;;;;;;0.63;0.63;;;;;;;;;;5089268;28;20081;-77
2024/04/04 03:18:45;;;;;;;1.20;0.52;;;;;;;;;;5085900;28;20040;-76
2024/04/04 03:21:10;;;;;;;1.95;1.58;;;;;;;;;;5076434;28;20495;-75
2024/04/04 03:23:35;;;;;;;5.32;1.20;;;;;;;;;;5092862;28;20024;-76
2024/04/04 03:26:01;;;;;;;0.68;0.50;;;;;;;;;;5082847;28;20036;-76
2024/04/04 03:28:26;;;;;;;8.55;1.58;;;;;;;;;;5071039;28;20555;-76
2024/04/04 03:30:51;;;;;;;1.00;0.85;;;;;;;;;;5086618;28;20040;-75
2024/04/04 03:33:17;;;;;;;1.05;1.00;;;;;;;;;;5089153;28;20032;-77
2024/04/04 03:35:42;;;;;;;8.07;0.73;;;;;;;;;;5088235;28;20024;-76
2024/04/04 03:38:08;;;;;;;0.75;0.65;;;;;;;;;;5085471;28;20139;-77
2024/04/04 03:40:33;;;;;;;4.68;1.17;;;;;;;;;;5085289;28;20930;-77
2024/04/04 03:42:58;;;;;;;0.82;0.68;;;;;;;;;;5067950;28;20115;-77
2024/04/04 03:45:24;;;;;;;0.45;0.45;;;;;;;;;;5101319;28;20039;-77
2024/04/04 03:47:49;;;;;;;0.90;0.90;;;;;;;;;;5085468;28;20061;-77
2024/04/04 03:50:14;;;;;;;0.70;0.70;;;;;;;;;;5087846;28;20793;-78
2024/04/04 03:52:40;;;;;;;1.27;0.52;;;;;;;;;;5093331;28;20040;-75
2024/04/04 03:55:06;;;;;;;0.60;0.60;;;;;;;;;;5086952;28;20027;-75
2024/04/04 03:57:33;;;;;;;1.13;1.02;;;;;;;;;;5072030;28;20043;-76
2024/04/04 03:59:58;;;;;;;2.30;0.75;;;;;;;;;;5080909;28;20039;-76
2024/04/04 04:02:23;;;;;;;5.80;2.60;;;;;;;;;;5090187;28;20042;-76
2024/04/04 04:04:49;;;;;;;1.75;0.82;;;;;;;;;;5084694;28;20465;-77
2024/04/04 04:07:14;;;;;;;3.60;2.35;;;;;;;;;;5086834;28;20040;-76
2024/04/04 04:09:40;;;;;;;1.00;0.90;;;;;;;;;;5085721;28;20060;-76
2024/04/04 04:12:05;;;;;;;1.33;0.95;;;;;;;;;;5092364;28;20483;-78
2024/04/04 04:14:32;;;;;;;0.85;0.85;;;;;;;;;;5087448;28;20023;-77
2024/04/04 04:16:57;;;;;;;1.05;1.02;;;;;;;;;;5091819;28;20066;-76
2024/04/04 04:19:23;;;;;;;9.48;3.13;;;;;;;;;;5084015;28;20495;-75
2024/04/04 04:21:48;;;;;;;1.38;1.05;;;;;;;;;;5073195;28;20048;-76
2024/04/04 04:24:13;;;;;;;2.85;2.30;;;;;;;;;;5087417;28;20032;-76
2024/04/04 04:26:39;;;;;;;0.77;0.63;;;;;;;;;;5090666;28;20036;-77
2024/04/04 04:29:04;;;;;;;1.27;0.95;;;;;;;;;;5085346;28;20045;-76
2024/04/04 04:31:33;;;;;;;2.67;2.47;;;;;;;;;;5075531;28;20067;-76
2024/04/04 04:34:05;;;;;;;3.33;1.83;;;;;;;;;;5087316;28;20783;-74
2024/04/04 04:36:31;;;;;;;1.30;1.15;;;;;;;;;;5089591;28;20096;-76
2024/04/04 04:38:57;;;;;;;1.75;1.42;;;;;;;;;;5082004;28;20027;-75
2024/04/04 04:41:22;;;;;;;0.80;0.80;;;;;;;;;;5088158;28;20032;-75
2024/04/04 04:43:48;;;;;;;0.30;0.30;;;;;;;;;;5072106;28;20809;-76
2024/04/04 04:46:14;;;;;;;2.15;0.98;;;;;;;;;;5089703;28;20071;-76
2024/04/04 04:48:39;;;;;;;1.35;1.25;;;;;;;;;;5088550;28;20432;-76
2024/04/04 04:51:05;;;;;;;1.77;1.55;;;;;;;;;;5085815;28;20162;-75
2024/04/04 04:53:30;;;;;;;1.30;1.17;;;;;;;;;;5091589;28;20038;-77
2024/04/04 04:55:55;;;;;;;1.55;0.65;;;;;;;;;;5084422;28;20508;-74
2024/04/04 04:58:21;;;;;;;11.82;1.90;;;;;;;;;;5091355;28;20138;-72
2024/04/04 05:00:47;;;;;;;3.55;2.15;;;;;;;;;;5065612;28;20059;-73
2024/04/04 05:03:14;;;;;;;1.17;1.08;;;;;;;;;;5070646;28;20040;-74
2024/04/04 05:05:39;;;;;;;0.50;0.50;;;;;;;;;;5068793;28;20056;-75
2024/04/04 05:08:05;;;;;;;1.90;0.90;;;;;;;;;;5089828;28;20200;-82
2024/04/04 05:10:31;;;;;;;0.60;0.60;;;;;;;;;;5094344;28;20092;-83
2024/04/04 05:12:57;;;;;;;2.17;1.98;;;;;;;;;;5082255;28;20473;-84
2024/04/04 05:15:22;;;;;;;1.02;0.85;;;;;;;;;;5085367;28;20499;-82
2024/04/04 05:17:47;;;;;;;4.10;2.50;;;;;;;;;;5078532;28;20022;-81
2024/04/04 05:20:13;;;;;;;1.38;1.27;;;;;;;;;;5073657;28;20046;-85
2024/04/04 05:22:42;;;;;;;1.15;1.05;;;;;;;;;;5079492;28;20032;-82
2024/04/04 05:25:13;;;;;;;2.20;1.17;;;;;;;;;;5078848;28;20056;-84
2024/04/04 05:27:39;;;;;;;2.78;2.28;;;;;;;;;;5083301;28;20039;-82
2024/04/04 05:30:14;;;;;;;1.58;1.27;;;;;;;;;;5090361;28;20039;-81
2024/04/04 05:32:42;;;;;;;1.55;1.17;;;;;;;;;;5086112;28;20028;-80
2024/04/04 05:35:08;;;;;;;2.05;1.35;;;;;;;;;;5085471;28;20040;-83
2024/04/04 05:37:37;;;;;;;4.00;1.35;;;;;;;;;;5085233;28;20047;-81
2024/04/04 05:40:04;;;;;;;1.95;0.95;;;;;;;;;;5074570;28;20127;-83
2024/04/04 05:42:36;;;;;;;2.33;2.13;;;;;;;;;;5073840;28;20055;-79
2024/04/04 05:45:01;;;;;;;4.47;2.23;;;;;;;;;;5071408;28;20169;-83
2024/04/04 05:47:27;;;;;;;0.82;0.82;;;;;;;;;;5065594;28;20104;-81
2024/04/04 05:49:52;;;;;;;1.27;1.15;;;;;;;;;;5083285;28;20119;-83
2024/04/04 05:52:18;;;;;;;1.55;0.90;;;;;;;;;;5087092;28;20830;-81
2024/04/04 05:54:46;;;;;;;0.57;0.40;;;;;;;;;;5088262;28;20077;-83
2024/04/04 05:57:12;;;;;;;0.65;0.65;;;;;;;;;;5092074;28;20036;-82
2024/04/04 05:59:37;;;;;;;1.45;0.85;;;;;;;;;;5090186;28;20431;-79
2024/04/04 06:02:03;;;;;;;0.45;0.45;;;;;;;;;;5090498;28;20032;-82
2024/04/04 06:04:29;;;;;;;0.45;0.43;;;;;;;;;;5083354;28;20051;-81
2024/04/04 06:06:54;;;;;;;1.25;1.02;;;;;;;;;;5085168;28;20631;-81
2024/04/04 06:09:20;;;;;;;1.77;0.77;;;;;;;;;;5090485;28;20048;-83
2024/04/04 06:11:45;;;;;;;4.82;4.35;;;;;;;;;;5088284;28;20059;-82
2024/04/04 06:14:10;;;;;;;0.77;0.68;;;;;;;;;;5089473;28;20083;-82
2024/04/04 06:16:36;;;;;;;8.10;2.20;;;;;;;;;;5089387;28;20059;-82
2024/04/04 06:19:01;;;;;;;0.55;0.55;;;;;;;;;;5089166;28;20032;-80
2024/04/04 06:21:27;;;;;;;0.25;0.25;;;;;;;;;;5088268;28;20158;-83
2024/04/04 06:23:52;;;;;;;1.90;1.75;;;;;;;;;;5089129;28;20123;-81
2024/04/04 06:26:17;;;;;;;0.35;0.35;;;;;;;;;;5091174;28;20023;-81
2024/04/04 06:28:46;;;;;;;1.05;0.70;;;;;;;;;;5088979;28;20559;-80
2024/04/04 06:31:12;;;;;;;2.05;1.00;;;;;;;;;;5087475;28;20040;-81
2024/04/04 06:33:38;;;;;;;0.95;0.77;;;;;;;;;;5087634;28;20102;-81
2024/04/04 06:36:04;;;;;;;3.88;1.65;;;;;;;;;;5092513;28;20040;-79
2024/04/04 06:38:29;;;;;;;5.97;2.53;;;;;;;;;;5089488;28;20039;-80
2024/04/04 06:40:55;;;;;;;1.52;1.42;;;;;;;;;;5086758;28;20737;-84
2024/04/04 06:43:20;;;;;;;0.68;0.63;;;;;;;;;;5086233;28;20051;-82
2024/04/04 06:45:45;;;;;;;0.22;0.22;;;;;;;;;;5088688;28;20438;-82
2024/04/04 06:48:11;;;;;;;1.02;0.68;;;;;;;;;;5093428;28;20036;-81
2024/04/04 06:50:36;;;;;;;0.85;0.82;;;;;;;;;;5089289;28;20016;-80
2024/04/04 06:53:03;;;;;;;1.08;0.73;;;;;;;;;;5087361;28;20054;-81
2024/04/04 06:55:28;;;;;;;1.15;1.05;;;;;;;;;;5086866;28;20465;-82
2024/04/04 06:57:53;;;;;;;1.83;1.17;;;;;;;;;;5087694;28;20052;-80
2024/04/04 07:00:19;;;;;;;0.30;0.30;;;;;;;;;;5087553;28;20146;-82
2024/04/04 07:02:44;;;;;;;1.02;0.93;;;;;;;;;;5089094;28;20077;-83
2024/04/04 07:05:10;;;;;;;1.15;0.80;;;;;;;;;;5087926;28;20094;-81
2024/04/04 07:07:35;;;;;;;2.10;0.68;;;;;;;;;;5088033;28;20484;-83
2024/04/04 07:10:04;;;;;;;1.08;0.68;;;;;;;;;;5092476;28;20444;-83
2024/04/04 07:12:30;;;;;;;1.83;1.45;;;;;;;;;;5090349;28;20036;-81
2024/04/04 07:14:55;;;;;;;0.63;0.52;;;;;;;;;;5088554;28;20054;-80
2024/04/04 07:17:21;;;;;;;2.53;1.42;;;;;;;;;;5085225;28;20434;-82
2024/04/04 07:19:46;;;;;;;1.27;1.10;;;;;;;;;;5092161;28;20062;-83
2024/04/04 07:22:11;;;;;;;1.95;1.85;;;;;;;;;;5087601;28;20066;-80
2024/04/04 07:24:37;;;;;;;1.50;1.40;;;;;;;;;;5089569;28;20039;-83
2024/04/04 07:27:02;;;;;;;0.68;0.65;;;;;;;;;;5088214;28;20360;-84
2024/04/04 07:29:28;;;;;;;0.55;0.43;;;;;;;;;;5087865;28;20028;-80
2024/04/04 07:31:53;;;;;;;2.00;1.05;;;;;;;;;;5091357;28;20547;-83
2024/04/04 07:34:19;;;;;;;0.30;0.30;;;;;;;;;;5086202;28;20036;-79
2024/04/04 07:36:45;;;;;;;1.45;1.35;;;;;;;;;;5093851;28;20130;-80
2024/04/04 07:39:10;;;;;;;0.43;0.43;;;;;;;;;;5089522;28;20046;-81
2024/04/04 07:41:36;;;;;;;0.50;0.40;;;;;;;;;;5075555;28;20402;-79
2024/04/04 07:44:01;;;;;;;1.08;0.85;;;;;;;;;;5081048;28;20116;-83
2024/04/04 07:46:27;;;;;;;1.40;1.30;;;;;;;;;;5086648;28;20047;-81
2024/04/04 07:48:53;;;;;;;15.80;2.17;;;;;;;;;;5086604;28;20036;-82
2024/04/04 07:51:19;;;;;;;0.50;0.50;;;;;;;;;;5086054;28;20048;-82
2024/04/04 07:53:44;;;;;;;2.05;1.30;;;;;;;;;;5088054;28;20019;-80
2024/04/04 07:56:11;;;;;;;1.05;0.60;;;;;;;;;;5089955;28;20443;-82
2024/04/04 07:58:37;;;;;;;0.73;0.70;;;;;;;;;;5085964;28;20056;-82
2024/04/04 08:01:04;;;;;;;1.08;0.98;;;;;;;;;;5093252;28;20100;-80
2024/04/04 08:03:31;;;;;;;1.00;0.90;;;;;;;;;;5078072;28;20036;-78
2024/04/04 08:05:57;;;;;;;1.05;0.95;;;;;;;;;;5102568;28;20024;-80
2024/04/04 08:08:23;;;;;;;0.52;0.52;;;;;;;;;;5088571;28;20101;-81
2024/04/04 08:10:49;;;;;;;1.13;0.70;;;;;;;;;;5087701;28;20051;-81
2024/04/04 08:13:14;;;;;;;0.65;0.40;;;;;;;;;;5067279;28;20055;-77
2024/04/04 08:15:39;;;;;;;12.80;0.80;;;;;;;;;;5086263;28;20427;-83
2024/04/04 08:18:05;;;;;;;0.45;0.40;;;;;;;;;;5080236;28;20029;-81
2024/04/04 08:20:30;;;;;;;2.63;1.00;;;;;;;;;;5084908;28;20032;-82
2024/04/04 08:22:56;;;;;;;7.90;1.23;;;;;;;;;;5084731;28;20086;-79
2024/04/04 08:25:21;;;;;;;0.85;0.60;;;;;;;;;;5090229;28;20040;-83
2024/04/04 08:27:47;;;;;;;1.05;0.93;;;;;;;;;;5085968;28;20063;-79
2024/04/04 08:30:13;;;;;;;0.20;0.20;;;;;;;;;;5086455;28;20160;-82
2024/04/04 08:32:38;;;;;;;1.67;1.58;;;;;;;;;;5080495;28;20027;-82
2024/04/04 08:35:06;;;;;;;0.60;0.60;;;;;;;;;;5087978;28;20054;-82
2024/04/04 08:37:32;;;;;;;1.23;1.00;;;;;;;;;;5085960;28;20554;-81
2024/04/04 08:39:58;;;;;;;0.28;0.28;;;;;;;;;;5075210;28;20518;-82
2024/04/04 08:42:25;;;;;;;3.80;0.82;;;;;;;;;;5085030;28;20032;-82
2024/04/04 08:44:52;;;;;;;0.50;0.50;;;;;;;;;;5085636;28;20023;-83
2024/04/04 08:47:18;;;;;;;0.50;0.45;;;;;;;;;;5087678;28;20036;-80
2024/04/04 08:49:46;;;;;;;0.88;0.70;;;;;;;;;;5087431;28;20040;-83
2024/04/04 08:52:13;;;;;;;2.65;2.45;;;;;;;;;;5067363;28;20446;-81
2024/04/04 08:54:38;;;;;;;1.77;1.10;;;;;;;;;;5066331;28;20040;-80
2024/04/04 08:57:05;;;;;;;0.30;0.30;;;;;;;;;;5092658;28;20092;-82
2024/04/04 08:59:30;;;;;;;2.33;1.73;;;;;;;;;;5088928;28;20043;-85
2024/04/04 09:01:55;;;;;;;1.45;0.82;;;;;;;;;;5087371;28;20437;-81
2024/04/04 09:04:28;;;;;;;0.25;0.25;;;;;;;;;;5085659;28;20028;-80
2024/04/04 09:06:54;;;;;;;0.95;0.80;;;;;;;;;;5083385;28;20043;-83
2024/04/04 09:09:20;;;;;;;5.68;1.27;;;;;;;;;;5068053;28;20459;-82
2024/04/04 09:11:46;;;;;;;0.70;0.70;;;;;;;;;;5093332;28;20515;-83
2024/04/04 09:14:11;;;;;;;0.47;0.47;;;;;;;;;;5086083;28;20017;-83
2024/04/04 09:16:37;;;;;;;0.80;0.60;;;;;;;;;;5086034;28;20051;-79
2024/04/04 09:19:15;;;;;;;0.57;0.40;;;;;;;;;;5084894;28;20034;-82
2024/04/04 09:21:43;;;;;;;0.40;0.40;;;;;;;;;;5088191;28;20035;-82
2024/04/04 09:24:08;;;;;;;0.20;0.20;;;;;;;;;;5071260;28;20081;-81
2024/04/04 09:26:35;;;;;;;0.47;0.40;;;;;;;;;;5085173;28;20024;-83
2024/04/04 09:29:01;;;;;;;1.88;0.90;;;;;;;;;;5085959;28;20076;-83
2024/04/04 09:31:27;;;;;;;0.85;0.50;;;;;;;;;;5075517;28;20036;-81
2024/04/04 09:33:55;;;;;;;0.65;0.52;;;;;;;;;;5069876;28;20032;-82
2024/04/04 09:36:20;;;;;;;0.73;0.65;;;;;;;;;;5073879;28;20510;-83
2024/04/04 09:38:45;;;;;;;3.25;2.30;;;;;;;;;;5087941;28;20020;-82
2024/04/04 09:41:11;;;;;;;0.80;0.47;;;;;;;;;;5085910;28;20035;-81
2024/04/04 09:43:36;;;;;;;0.65;0.65;;;;;;;;;;5089485;28;20480;-84
2024/04/04 09:46:02;;;;;;;0.75;0.75;;;;;;;;;;5071179;28;20669;-84
2024/04/04 09:48:28;;;;;;;1.95;1.70;;;;;;;;;;5086673;28;20820;-82
2024/04/04 09:50:55;;;;;;;0.40;0.40;;;;;;;;;;5088763;28;20023;-81
2024/04/04 09:53:22;;;;;;;0.28;0.28;;;;;;;;;;5071491;28;20135;-83
2024/04/04 09:55:48;;;;;;;0.20;0.20;;;;;;;;;;5088169;28;20133;-83
2024/04/04 09:58:14;;;;;;;0.50;0.43;;;;;;;;;;5089361;28;20090;-82
2024/04/04 10:00:42;;;;;;;0.93;0.85;;;;;;;;;;5088856;28;20048;-82
2024/04/04 10:03:12;;;;;;;1.83;1.73;;;;;;;;;;5088500;28;20506;-80
2024/04/04 10:05:38;;;;;;;1.38;0.82;;;;;;;;;;5087382;28;20016;-82
2024/04/04 10:08:10;;;;;;;0.22;0.20;;;;;;;;;;5083056;28;20048;-83
2024/04/04 10:10:36;;;;;;;0.17;0.17;;;;;;;;;;5058800;28;20028;-83
2024/04/04 10:13:08;;;;;;;1.20;0.98;;;;;;;;;;5068563;28;20032;-83
2024/04/04 10:15:46;;;;;;;4.15;2.40;;;;;;;;;;5050004;28;20468;-81
2024/04/04 10:18:12;;;;;;;0.32;0.32;;;;;;;;;;5068446;28;20113;-84
2024/04/04 10:20:39;;;;;;;0.25;0.25;;;;;;;;;;5068333;28;20028;-84
2024/04/04 10:23:05;;;;;;;0.20;0.20;;;;;;;;;;5051597;28;20489;-81
2024/04/04 10:25:31;;;;;;;0.30;0.30;;;;;;;;;;5058708;28;20033;-81
2024/04/04 10:28:03;;;;;;;0.28;0.28;;;;;;;;;;5071913;28;20752;-84
2024/04/04 10:30:34;;;;;;;0.73;0.73;;;;;;;;;;5067718;28;20040;-82
2024/04/04 10:33:06;;;;;;;0.32;0.32;;;;;;;;;;5069905;28;20566;-78
2024/04/04 10:35:31;;;;;;;0.55;0.55;;;;;;;;;;5068434;28;20024;-85
2024/04/04 10:38:10;;;;;;;0.30;0.30;;;;;;;;;;5068468;28;20045;-81
2024/04/04 10:40:36;;;;;;;0.10;0.10;;;;;;;;;;5066372;28;20080;-82
2024/04/04 10:43:06;;;;;;;1.95;0.73;;;;;;;;;;5067251;28;20072;-84
2024/04/04 10:45:31;;;;;;;0.30;0.30;;;;;;;;;;5067129;28;20126;-85
2024/04/04 10:47:57;;;;;;;0.15;0.15;;;;;;;;;;5067936;28;20473;-83
2024/04/04 10:50:22;;;;;;;0.40;0.30;;;;;;;;;;5071727;28;20055;-84
2024/04/04 10:52:48;;;;;;;0.20;0.20;;;;;;;;;;5067079;28;20083;-83
2024/04/04 10:55:13;;;;;;;2.50;0.60;;;;;;;;;;5047854;28;20113;-85
2024/04/04 10:57:39;;;;;;;1.45;0.40;;;;;;;;;;5066210;28;20119;-86
2024/04/04 11:00:11;;;;;;;0.10;0.10;;;;;;;;;;5070980;28;20049;-82
2024/04/04 11:02:36;;;;;;;0.65;0.65;;;;;;;;;;5068356;28;20110;-86
2024/04/04 11:05:02;;;;;;;1.75;1.65;;;;;;;;;;5067356;28;20091;-85
2024/04/04 11:07:33;;;;;;;0.43;0.40;;;;;;;;;;5050021;28;20043;-83
2024/04/04 11:09:59;;;;;;;0.85;0.85;;;;;;;;;;5074680;28;20450;-84
2024/04/04 11:12:24;;;;;;;0.20;0.20;;;;;;;;;;5067258;28;20044;-82
2024/04/04 11:14:50;;;;;;;0.20;0.20;;;;;;;;;;5068245;28;20124;-84
2024/04/04 11:17:15;;;;;;;0.20;0.20;;;;;;;;;;5084487;28;20032;-83
2024/04/04 11:19:41;;;;;;;0.60;0.60;;;;;;;;;;5071346;28;20568;-82
2024/04/04 11:22:06;;;;;;;2.55;1.33;;;;;;;;;;5078771;28;20042;-83
2024/04/04 11:24:32;;;;;;;1.80;1.65;;;;;;;;;;5092417;28;20090;-83
2024/04/04 11:26:57;;;;;;;1.65;0.98;;;;;;;;;;5096219;28;20039;-84
2024/04/04 11:29:22;;;;;;;0.35;0.35;;;;;;;;;;5086865;28;20452;-85
2024/04/04 11:31:53;;;;;;;1.85;1.15;;;;;;;;;;5087078;28;20044;-85
2024/04/04 11:34:20;;;;;;;0.52;0.50;;;;;;;;;;5087760;28;20567;-84
2024/04/04 11:36:45;;;;;;;0.38;0.38;;;;;;;;;;5088124;28;20082;-81
2024/04/04 11:39:10;;;;;;;0.30;0.30;;;;;;;;;;5090137;28;20075;-84
2024/04/04 11:41:36;;;;;;;0.20;0.20;;;;;;;;;;5082794;28;20545;-85
2024/04/04 11:44:01;;;;;;;1.75;1.38;;;;;;;;;;5087623;28;20047;-83
2024/04/04 11:46:27;;;;;;;0.20;0.20;;;;;;;;;;5087481;28;20438;-85
2024/04/04 11:48:53;;;;;;;0.30;0.30;;;;;;;;;;5088474;28;20058;-85
2024/04/04 11:51:18;;;;;;;0.45;0.45;;;;;;;;;;5086584;28;20028;-83
2024/04/04 11:53:44;;;;;;;0.20;0.20;;;;;;;;;;5085305;28;20024;-84
2024/04/04 11:56:09;;;;;;;0.35;0.35;;;;;;;;;;5066871;28;20072;-84
2024/04/04 11:58:35;;;;;;;0.25;0.20;;;;;;;;;;5067451;28;20064;-85
2024/04/04 12:01:01;;;;;;;0.10;0.10;;;;;;;;;;5078181;28;20044;-84
2024/04/04 12:03:27;;;;;;;0.30;0.30;;;;;;;;;;5079929;28;20041;-84
2024/04/04 12:05:52;;;;;;;0.50;0.50;;;;;;;;;;5065208;28;20024;-83
2024/04/04 12:08:17;;;;;;;0.10;0.10;;;;;;;;;;5066476;28;20123;-83
2024/04/04 12:10:43;;;;;;;0.68;0.65;;;;;;;;;;5090271;28;20039;-85
2024/04/04 12:13:12;;;;;;;1.58;0.45;;;;;;;;;;5090096;28;20062;-85
2024/04/04 12:15:38;;;;;;;6.30;1.95;;;;;;;;;;5086729;28;20044;-83
2024/04/04 12:20:52;;;;;;;2.85;0.60;;;;;;;;;;5085368;28;20123;-83
2024/04/04 12:23:17;;;;;;;0.65;0.65;;;;;;;;;;5091354;28;20024;-84
2024/04/04 12:25:46;;;;;;;0.30;0.30;;;;;;;;;;5085905;28;20089;-83
2024/04/04 12:28:14;;;;;;;0.10;0.10;;;;;;;;;;5085045;28;20143;-85
2024/04/04 12:30:42;;;;;;;1.67;1.27;;;;;;;;;;5086178;28;20131;-84
2024/04/04 12:33:07;;;;;;;1.45;1.08;;;;;;;;;;5086376;28;20090;-85
2024/04/04 12:35:33;;;;;;;0.73;0.73;;;;;;;;;;5086272;28;20020;-83
2024/04/04 12:37:58;;;;;;;0.90;0.90;;;;;;;;;;5088996;28;20467;-83
2024/04/04 12:40:24;;;;;;;1.40;1.10;;;;;;;;;;5084301;28;20044;-82
2024/04/04 12:42:51;;;;;;;0.35;0.35;;;;;;;;;;5086314;28;20029;-84
2024/04/04 12:45:16;;;;;;;0.85;0.85;;;;;;;;;;5097503;28;20100;-84
2024/04/04 12:47:41;;;;;;;0.52;0.50;;;;;;;;;;5097664;28;20115;-83
2024/04/04 12:50:07;;;;;;;0.50;0.43;;;;;;;;;;5093643;28;20152;-83
2024/04/04 12:52:33;;;;;;;0.30;0.30;;;;;;;;;;5085315;28;20044;-84
2024/04/04 12:54:58;;;;;;;0.20;0.20;;;;;;;;;;5086649;28;20028;-82
2024/04/04 12:57:24;;;;;;;11.10;1.63;;;;;;;;;;5086791;28;20556;-82
2024/04/04 12:59:49;;;;;;;1.20;1.10;;;;;;;;;;5091087;28;20039;-80
2024/04/04 13:02:14;;;;;;;2.08;1.88;;;;;;;;;;5091603;28;20468;-77
2024/04/04 13:04:40;;;;;;;0.47;0.47;;;;;;;;;;5085310;28;20032;-85
2024/04/04 13:07:05;;;;;;;0.50;0.50;;;;;;;;;;5066067;28;20032;-84
2024/04/04 13:09:31;;;;;;;0.45;0.45;;;;;;;;;;5089621;28;20047;-84
2024/04/04 13:11:57;;;;;;;0.22;0.22;;;;;;;;;;5089142;28;20012;-84
2024/04/04 13:14:22;;;;;;;1.75;1.23;;;;;;;;;;5072410;28;20041;-84
2024/04/04 13:16:48;;;;;;;1.08;0.65;;;;;;;;;;5089487;28;20063;-81
2024/04/04 13:19:13;;;;;;;1.30;0.85;;;;;;;;;;5087038;28;20090;-85
2024/04/04 13:21:39;;;;;;;0.52;0.35;;;;;;;;;;5084690;28;20052;-81
2024/04/04 13:24:05;;;;;;;2.17;1.20;;;;;;;;;;5086943;28;20044;-82
2024/04/04 13:26:30;;;;;;;0.43;0.20;;;;;;;;;;5068811;28;20020;-81
2024/04/04 13:28:56;;;;;;;0.88;0.80;;;;;;;;;;5085700;28;20055;-84
2024/04/04 13:31:21;;;;;;;0.45;0.40;;;;;;;;;;5086010;28;20036;-84
2024/04/04 13:33:46;;;;;;;0.82;0.82;;;;;;;;;;5089526;28;20043;-84
2024/04/04 13:36:12;;;;;;;0.60;0.45;;;;;;;;;;5085402;28;20028;-84
2024/04/04 13:38:37;;;;;;;0.20;0.20;;;;;;;;;;5088226;28;20024;-83
2024/04/04 13:41:03;;;;;;;1.20;1.00;;;;;;;;;;5081429;28;20052;-83
2024/04/04 13:43:28;;;;;;;0.20;0.20;;;;;;;;;;5067311;28;20096;-83
2024/04/04 13:45:54;;;;;;;0.30;0.30;;;;;;;;;;5084483;28;20122;-83
2024/04/04 13:48:20;;;;;;;0.25;0.25;;;;;;;;;;5090444;28;20197;-81
2024/04/04 13:50:45;;;;;;;0.10;0.10;;;;;;;;;;5085698;28;20106;-83
2024/04/04 13:53:12;;;;;;;0.13;0.13;;;;;;;;;;5090356;28;20016;-83
2024/04/04 13:55:37;;;;;;;0.20;0.20;;;;;;;;;;5085309;28;20047;-83
2024/04/04 13:58:02;;;;;;;0.63;0.52;;;;;;;;;;5085674;28;20024;-83
2024/04/04 14:00:29;;;;;;;0.20;0.20;;;;;;;;;;5085622;28;20035;-82
2024/04/04 14:02:55;;;;;;;0.20;0.20;;;;;;;;;;5088175;28;20088;-80
2024/04/04 14:05:20;;;;;;;0.15;0.15;;;;;;;;;;5071336;28;20028;-82
2024/04/04 14:07:46;;;;;;;0.52;0.52;;;;;;;;;;5088316;28;20029;-82
2024/04/04 14:10:11;;;;;;;1.40;0.95;;;;;;;;;;5085417;28;20437;-83
2024/04/04 14:12:37;;;;;;;0.47;0.38;;;;;;;;;;5086873;28;20083;-85
2024/04/04 14:15:02;;;;;;;0.20;0.20;;;;;;;;;;5091873;28;20065;-85
2024/04/04 14:17:28;;;;;;;0.10;0.10;;;;;;;;;;5081235;28;20042;-84
2024/04/04 14:19:53;;;;;;;0.20;0.20;;;;;;;;;;5064580;28;20052;-87
2024/04/04 14:22:19;;;;;;;1.95;1.45;;;;;;;;;;5068392;28;20060;-86
2024/04/04 14:24:44;;;;;;;0.63;0.63;;;;;;;;;;5077570;28;20070;-80
2024/04/04 14:27:09;;;;;;;0.20;0.20;;;;;;;;;;5086703;28;20089;-86
2024/04/04 14:29:35;;;;;;;1.27;1.20;;;;;;;;;;5072015;28;20055;-84
2024/04/04 14:32:01;;;;;;;0.15;0.15;;;;;;;;;;5068471;28;20754;-79
2024/04/04 14:34:27;;;;;;;0.30;0.30;;;;;;;;;;5063453;28;20444;-81
2024/04/04 14:36:52;;;;;;;0.10;0.10;;;;;;;;;;5072513;28;20047;-84
2024/04/04 14:39:18;;;;;;;0.13;0.13;;;;;;;;;;5079481;28;20480;-77